sensor_id;sensor_type;location;lat;lon;timestamp;P1;durP1;ratioP1;P2;durP2;ratioP2
71296;SDS011;59082;50.658;4.608;2023-02-01T05:13:08;9.40;;;3.20;;
71296;SDS011;59082;50.658;4.608;2023-02-01T05:15:53;11.02;;;2.72;;
71296;SDS011;59082;50.658;4.608;2023-02-01T05:18:19;17.03;;;3.30;;
71296;SDS011;59082;50.658;4.608;2023-02-01T05:20:44;8.13;;;2.20;;
71296;SDS011;59082;50.658;4.608;2023-02-01T05:23:10;17.97;;;3.50;;
71296;SDS011;59082;50.658;4.608;2023-02-01T05:25:36;9.97;;;2.97;;
71296;SDS011;59082;50.658;4.608;2023-02-01T05:28:01;12.63;;;2.88;;
71296;SDS011;59082;50.658;4.608;2023-02-01T05:30:27;16.47;;;2.97;;
71296;SDS011;59082;50.658;4.608;2023-02-01T05:32:53;12.70;;;2.13;;
71296;SDS011;59082;50.658;4.608;2023-02-01T05:35:18;15.63;;;3.77;;
71296;SDS011;59082;50.658;4.608;2023-02-01T05:37:44;13.05;;;2.90;;
71296;SDS011;59082;50.658;4.608;2023-02-01T05:40:10;17.53;;;4.60;;
71296;SDS011;59082;50.658;4.608;2023-02-01T05:42:36;10.02;;;2.60;;
71296;SDS011;59082;50.658;4.608;2023-02-01T05:45:05;14.43;;;2.80;;
71296;SDS011;59082;50.658;4.608;2023-02-01T05:47:32;15.65;;;3.05;;
71296;SDS011;59082;50.658;4.608;2023-02-01T05:50:00;11.73;;;3.30;;
71296;SDS011;59082;50.658;4.608;2023-02-01T05:52:28;13.52;;;3.40;;
71296;SDS011;59082;50.658;4.608;2023-02-01T05:54:54;19.70;;;2.93;;
71296;SDS011;59082;50.658;4.608;2023-02-01T05:57:20;15.10;;;2.72;;
71296;SDS011;59082;50.658;4.608;2023-02-01T05:59:46;14.10;;;3.50;;
71296;SDS011;59082;50.658;4.608;2023-02-01T06:02:14;15.50;;;2.73;;
71296;SDS011;59082;50.658;4.608;2023-02-01T06:04:44;16.20;;;2.72;;
71296;SDS011;59082;50.658;4.608;2023-02-01T06:07:16;11.63;;;3.08;;
71296;SDS011;59082;50.658;4.608;2023-02-01T06:09:41;16.77;;;2.33;;
71296;SDS011;59082;50.658;4.608;2023-02-01T06:12:07;14.02;;;3.03;;
71296;SDS011;59082;50.658;4.608;2023-02-01T06:14:33;11.83;;;3.40;;
71296;SDS011;59082;50.658;4.608;2023-02-01T06:16:58;9.50;;;2.75;;
71296;SDS011;59082;50.658;4.608;2023-02-01T06:19:24;14.37;;;3.13;;
71296;SDS011;59082;50.658;4.608;2023-02-01T06:21:50;18.13;;;3.70;;
71296;SDS011;59082;50.658;4.608;2023-02-01T06:24:15;14.50;;;3.20;;
71296;SDS011;59082;50.658;4.608;2023-02-01T06:26:41;15.15;;;2.63;;
71296;SDS011;59082;50.658;4.608;2023-02-01T06:29:07;15.90;;;3.87;;
71296;SDS011;59082;50.658;4.608;2023-02-01T06:31:34;18.55;;;4.65;;
71296;SDS011;59082;50.658;4.608;2023-02-01T06:34:00;12.33;;;2.70;;
71296;SDS011;59082;50.658;4.608;2023-02-01T06:36:25;15.67;;;2.60;;
71296;SDS011;59082;50.658;4.608;2023-02-01T06:38:51;11.40;;;2.47;;
71296;SDS011;59082;50.658;4.608;2023-02-01T06:41:21;15.45;;;3.58;;
71296;SDS011;59082;50.658;4.608;2023-02-01T06:43:50;14.40;;;2.97;;
71296;SDS011;59082;50.658;4.608;2023-02-01T06:46:16;14.77;;;3.50;;
71296;SDS011;59082;50.658;4.608;2023-02-01T06:48:42;14.03;;;2.53;;
71296;SDS011;59082;50.658;4.608;2023-02-01T06:51:25;17.25;;;2.85;;
71296;SDS011;59082;50.658;4.608;2023-02-01T06:53:53;17.08;;;2.78;;
71296;SDS011;59082;50.658;4.608;2023-02-01T06:56:19;12.63;;;2.50;;
71296;SDS011;59082;50.658;4.608;2023-02-01T06:58:45;15.95;;;2.50;;
71296;SDS011;59082;50.658;4.608;2023-02-01T07:01:11;11.00;;;3.23;;
71296;SDS011;59082;50.658;4.608;2023-02-01T07:03:37;22.05;;;4.43;;
71296;SDS011;59082;50.658;4.608;2023-02-01T07:06:03;13.93;;;3.40;;
71296;SDS011;59082;50.658;4.608;2023-02-01T07:08:30;13.65;;;2.90;;
71296;SDS011;59082;50.658;4.608;2023-02-01T07:11:00;13.18;;;3.20;;
71296;SDS011;59082;50.658;4.608;2023-02-01T07:13:36;13.37;;;3.20;;
71296;SDS011;59082;50.658;4.608;2023-02-01T07:16:02;16.08;;;3.10;;
71296;SDS011;59082;50.658;4.608;2023-02-01T07:18:30;14.45;;;3.90;;
71296;SDS011;59082;50.658;4.608;2023-02-01T07:20:56;16.40;;;3.40;;
71296;SDS011;59082;50.658;4.608;2023-02-01T07:23:22;20.17;;;3.67;;
71296;SDS011;59082;50.658;4.608;2023-02-01T07:25:48;13.15;;;3.28;;
71296;SDS011;59082;50.658;4.608;2023-02-01T07:28:13;13.30;;;2.43;;
71296;SDS011;59082;50.658;4.608;2023-02-01T07:30:42;18.42;;;3.42;;
71296;SDS011;59082;50.658;4.608;2023-02-01T07:33:07;18.30;;;3.93;;
71296;SDS011;59082;50.658;4.608;2023-02-01T07:35:33;11.30;;;2.60;;
71296;SDS011;59082;50.658;4.608;2023-02-01T07:38:02;15.27;;;3.22;;
71296;SDS011;59082;50.658;4.608;2023-02-01T07:40:28;14.77;;;3.33;;
71296;SDS011;59082;50.658;4.608;2023-02-01T07:42:55;15.93;;;3.38;;
71296;SDS011;59082;50.658;4.608;2023-02-01T07:45:23;17.90;;;3.58;;
71296;SDS011;59082;50.658;4.608;2023-02-01T07:47:50;20.27;;;3.77;;
71296;SDS011;59082;50.658;4.608;2023-02-01T07:50:17;16.60;;;3.90;;
71296;SDS011;59082;50.658;4.608;2023-02-01T07:52:43;15.80;;;3.73;;
71296;SDS011;59082;50.658;4.608;2023-02-01T07:55:08;15.90;;;2.80;;
71296;SDS011;59082;50.658;4.608;2023-02-01T07:57:37;9.87;;;3.43;;
71296;SDS011;59082;50.658;4.608;2023-02-01T08:00:05;11.45;;;3.13;;
71296;SDS011;59082;50.658;4.608;2023-02-01T08:02:49;20.40;;;3.05;;
71296;SDS011;59082;50.658;4.608;2023-02-01T08:05:15;11.37;;;3.00;;
71296;SDS011;59082;50.658;4.608;2023-02-01T08:07:40;16.02;;;3.53;;
71296;SDS011;59082;50.658;4.608;2023-02-01T08:10:06;14.03;;;3.40;;
71296;SDS011;59082;50.658;4.608;2023-02-01T08:12:35;13.05;;;3.53;;
71296;SDS011;59082;50.658;4.608;2023-02-01T08:15:02;9.85;;;3.20;;
71296;SDS011;59082;50.658;4.608;2023-02-01T08:17:28;18.57;;;3.30;;
71296;SDS011;59082;50.658;4.608;2023-02-01T08:19:54;19.75;;;3.90;;
71296;SDS011;59082;50.658;4.608;2023-02-01T08:22:20;11.20;;;3.00;;
71296;SDS011;59082;50.658;4.608;2023-02-01T08:24:48;12.03;;;2.73;;
71296;SDS011;59082;50.658;4.608;2023-02-01T08:27:14;12.20;;;2.50;;
71296;SDS011;59082;50.658;4.608;2023-02-01T08:29:39;15.27;;;3.70;;
71296;SDS011;59082;50.658;4.608;2023-02-01T08:32:05;9.50;;;3.22;;
71296;SDS011;59082;50.658;4.608;2023-02-01T08:34:31;13.50;;;3.40;;
71296;SDS011;59082;50.658;4.608;2023-02-01T08:36:56;14.77;;;2.80;;
71296;SDS011;59082;50.658;4.608;2023-02-01T08:39:27;14.77;;;3.75;;
71296;SDS011;59082;50.658;4.608;2023-02-01T08:41:52;14.10;;;4.00;;
71296;SDS011;59082;50.658;4.608;2023-02-01T08:44:36;13.70;;;2.70;;
71296;SDS011;59082;50.658;4.608;2023-02-01T08:47:02;12.63;;;3.40;;
71296;SDS011;59082;50.658;4.608;2023-02-01T08:49:28;12.17;;;2.77;;
71296;SDS011;59082;50.658;4.608;2023-02-01T08:51:54;13.57;;;3.10;;
71296;SDS011;59082;50.658;4.608;2023-02-01T08:54:20;13.73;;;3.93;;
71296;SDS011;59082;50.658;4.608;2023-02-01T08:56:46;10.45;;;3.17;;
71296;SDS011;59082;50.658;4.608;2023-02-01T08:59:12;20.20;;;4.00;;
71296;SDS011;59082;50.658;4.608;2023-02-01T09:01:37;18.90;;;7.17;;
71296;SDS011;59082;50.658;4.608;2023-02-01T09:04:03;15.03;;;3.60;;
71296;SDS011;59082;50.658;4.608;2023-02-01T09:06:28;17.02;;;8.35;;
71296;SDS011;59082;50.658;4.608;2023-02-01T09:08:54;15.57;;;6.33;;
71296;SDS011;59082;50.658;4.608;2023-02-01T09:11:19;18.13;;;4.73;;
71296;SDS011;59082;50.658;4.608;2023-02-01T09:13:46;15.90;;;3.70;;
71296;SDS011;59082;50.658;4.608;2023-02-01T09:16:12;13.73;;;3.30;;
71296;SDS011;59082;50.658;4.608;2023-02-01T09:18:38;15.43;;;4.65;;
71296;SDS011;59082;50.658;4.608;2023-02-01T09:21:04;14.47;;;3.97;;
71296;SDS011;59082;50.658;4.608;2023-02-01T09:23:30;18.55;;;3.50;;
71296;SDS011;59082;50.658;4.608;2023-02-01T09:26:02;12.63;;;3.03;;
71296;SDS011;59082;50.658;4.608;2023-02-01T09:28:29;17.58;;;3.28;;
71296;SDS011;59082;50.658;4.608;2023-02-01T09:30:58;13.60;;;4.17;;
71296;SDS011;59082;50.658;4.608;2023-02-01T09:33:26;17.20;;;4.57;;
71296;SDS011;59082;50.658;4.608;2023-02-01T09:35:59;12.45;;;3.95;;
71296;SDS011;59082;50.658;4.608;2023-02-01T09:38:27;14.52;;;3.58;;
71296;SDS011;59082;50.658;4.608;2023-02-01T09:40:53;9.47;;;3.07;;
71296;SDS011;59082;50.658;4.608;2023-02-01T09:46:06;14.18;;;3.80;;
71296;SDS011;59082;50.658;4.608;2023-02-01T09:48:40;15.13;;;3.45;;
71296;SDS011;59082;50.658;4.608;2023-02-01T09:51:19;14.30;;;5.53;;
71296;SDS011;59082;50.658;4.608;2023-02-01T09:53:58;10.30;;;3.70;;
71296;SDS011;59082;50.658;4.608;2023-02-01T09:56:35;11.80;;;4.22;;
71296;SDS011;59082;50.658;4.608;2023-02-01T09:59:15;15.93;;;5.05;;
71296;SDS011;59082;50.658;4.608;2023-02-01T10:01:44;14.73;;;4.68;;
71296;SDS011;59082;50.658;4.608;2023-02-01T10:04:11;11.95;;;4.90;;
71296;SDS011;59082;50.658;4.608;2023-02-01T10:17:25;11.77;;;3.97;;
71296;SDS011;59082;50.658;4.608;2023-02-01T10:20:27;10.13;;;3.80;;
71296;SDS011;59082;50.658;4.608;2023-02-01T10:23:02;12.13;;;3.80;;
71296;SDS011;59082;50.658;4.608;2023-02-01T10:25:55;10.10;;;3.90;;
71296;SDS011;59082;50.658;4.608;2023-02-01T10:28:24;11.23;;;3.53;;
71296;SDS011;59082;50.658;4.608;2023-02-01T10:30:52;11.50;;;3.70;;
71296;SDS011;59082;50.658;4.608;2023-02-01T10:33:26;12.13;;;4.10;;
71296;SDS011;59082;50.658;4.608;2023-02-01T10:38:43;12.80;;;3.60;;
71296;SDS011;59082;50.658;4.608;2023-02-01T10:41:16;13.10;;;3.28;;
71296;SDS011;59082;50.658;4.608;2023-02-01T10:43:44;10.48;;;3.83;;
71296;SDS011;59082;50.658;4.608;2023-02-01T10:46:18;10.65;;;3.15;;
71296;SDS011;59082;50.658;4.608;2023-02-01T10:48:44;14.20;;;4.30;;
71296;SDS011;59082;50.658;4.608;2023-02-01T10:53:53;9.02;;;2.80;;
71296;SDS011;59082;50.658;4.608;2023-02-01T10:56:24;9.85;;;3.42;;
71296;SDS011;59082;50.658;4.608;2023-02-01T10:59:01;19.73;;;3.95;;
71296;SDS011;59082;50.658;4.608;2023-02-01T11:01:37;11.10;;;3.30;;
71296;SDS011;59082;50.658;4.608;2023-02-01T11:04:05;11.33;;;3.10;;
71296;SDS011;59082;50.658;4.608;2023-02-01T11:06:51;15.20;;;3.78;;
71296;SDS011;59082;50.658;4.608;2023-02-01T11:09:21;11.10;;;3.60;;
71296;SDS011;59082;50.658;4.608;2023-02-01T11:14:18;15.40;;;3.47;;
71296;SDS011;59082;50.658;4.608;2023-02-01T11:16:49;12.27;;;2.97;;
71296;SDS011;59082;50.658;4.608;2023-02-01T11:19:18;11.82;;;2.60;;
71296;SDS011;59082;50.658;4.608;2023-02-01T11:21:44;15.00;;;3.07;;
71296;SDS011;59082;50.658;4.608;2023-02-01T11:24:25;14.57;;;3.13;;
71296;SDS011;59082;50.658;4.608;2023-02-01T11:26:54;9.75;;;3.22;;
71296;SDS011;59082;50.658;4.608;2023-02-01T11:29:22;12.52;;;3.47;;
71296;SDS011;59082;50.658;4.608;2023-02-01T11:31:56;11.23;;;3.33;;
71296;SDS011;59082;50.658;4.608;2023-02-01T11:34:24;10.10;;;3.37;;
71296;SDS011;59082;50.658;4.608;2023-02-01T11:36:53;7.25;;;2.67;;
71296;SDS011;59082;50.658;4.608;2023-02-01T11:39:26;6.90;;;3.17;;
71296;SDS011;59082;50.658;4.608;2023-02-01T11:41:57;9.00;;;3.25;;
71296;SDS011;59082;50.658;4.608;2023-02-01T11:44:35;10.02;;;3.30;;
71296;SDS011;59082;50.658;4.608;2023-02-01T11:49:56;9.65;;;4.20;;
71296;SDS011;59082;50.658;4.608;2023-02-01T12:00:50;6.53;;;2.33;;
71296;SDS011;59082;50.658;4.608;2023-02-01T12:03:30;11.57;;;2.55;;
71296;SDS011;59082;50.658;4.608;2023-02-01T12:06:13;10.15;;;2.63;;
71296;SDS011;59082;50.658;4.608;2023-02-01T12:17:15;7.40;;;1.88;;
71296;SDS011;59082;50.658;4.608;2023-02-01T12:20:13;6.30;;;1.95;;
71296;SDS011;59082;50.658;4.608;2023-02-01T12:23:00;5.55;;;2.38;;
71296;SDS011;59082;50.658;4.608;2023-02-01T12:33:43;7.80;;;2.58;;
71296;SDS011;59082;50.658;4.608;2023-02-01T12:36:39;6.65;;;1.90;;
71296;SDS011;59082;50.658;4.608;2023-02-01T12:41:55;7.03;;;1.97;;
71296;SDS011;59082;50.658;4.608;2023-02-01T12:49:55;6.25;;;1.70;;
71296;SDS011;59082;50.658;4.608;2023-02-01T12:52:37;6.55;;;1.70;;
71296;SDS011;59082;50.658;4.608;2023-02-01T12:58:12;8.20;;;2.28;;
71296;SDS011;59082;50.658;4.608;2023-02-01T13:00:53;5.40;;;2.25;;
71296;SDS011;59082;50.658;4.608;2023-02-01T13:06:36;4.65;;;1.83;;
71296;SDS011;59082;50.658;4.608;2023-02-01T13:12:03;6.10;;;1.80;;
71296;SDS011;59082;50.658;4.608;2023-02-01T13:14:38;7.68;;;2.03;;
71296;SDS011;59082;50.658;4.608;2023-02-01T13:17:22;5.15;;;2.67;;
71296;SDS011;59082;50.658;4.608;2023-02-01T13:22:25;8.67;;;2.50;;
71296;SDS011;59082;50.658;4.608;2023-02-01T13:27:35;5.75;;;2.47;;
71296;SDS011;59082;50.658;4.608;2023-02-01T13:35:27;6.47;;;2.30;;
71296;SDS011;59082;50.658;4.608;2023-02-01T13:38:28;5.65;;;1.77;;
71296;SDS011;59082;50.658;4.608;2023-02-01T13:43:50;6.40;;;1.88;;
71296;SDS011;59082;50.658;4.608;2023-02-01T13:46:18;8.57;;;2.20;;
71296;SDS011;59082;50.658;4.608;2023-02-01T13:48:51;6.97;;;2.83;;
71296;SDS011;59082;50.658;4.608;2023-02-01T13:51:40;6.35;;;1.77;;
71296;SDS011;59082;50.658;4.608;2023-02-01T13:54:23;12.40;;;2.63;;
71296;SDS011;59082;50.658;4.608;2023-02-01T14:00:36;7.70;;;2.35;;
71296;SDS011;59082;50.658;4.608;2023-02-01T14:16:11;10.10;;;3.00;;
71296;SDS011;59082;50.658;4.608;2023-02-01T14:26:57;11.35;;;2.60;;
71296;SDS011;59082;50.658;4.608;2023-02-01T14:29:32;6.43;;;1.83;;
71296;SDS011;59082;50.658;4.608;2023-02-01T14:32:22;14.13;;;2.70;;
71296;SDS011;59082;50.658;4.608;2023-02-01T14:34:53;9.50;;;2.33;;
71296;SDS011;59082;50.658;4.608;2023-02-01T14:44:56;8.68;;;2.88;;
71296;SDS011;59082;50.658;4.608;2023-02-01T14:50:39;9.05;;;2.38;;
71296;SDS011;59082;50.658;4.608;2023-02-01T14:58:28;8.95;;;2.17;;
71296;SDS011;59082;50.658;4.608;2023-02-01T15:08:46;13.48;;;2.75;;
71296;SDS011;59082;50.658;4.608;2023-02-01T15:11:14;12.63;;;3.47;;
71296;SDS011;59082;50.658;4.608;2023-02-01T15:13:40;9.13;;;2.80;;
71296;SDS011;59082;50.658;4.608;2023-02-01T15:16:15;12.32;;;3.10;;
71296;SDS011;59082;50.658;4.608;2023-02-01T15:18:42;8.90;;;2.17;;
71296;SDS011;59082;50.658;4.608;2023-02-01T15:21:18;7.70;;;2.77;;
71296;SDS011;59082;50.658;4.608;2023-02-01T15:23:45;7.20;;;2.60;;
71296;SDS011;59082;50.658;4.608;2023-02-01T15:26:34;11.55;;;3.13;;
71296;SDS011;59082;50.658;4.608;2023-02-01T15:28:59;10.80;;;2.40;;
71296;SDS011;59082;50.658;4.608;2023-02-01T15:31:31;12.02;;;2.63;;
71296;SDS011;59082;50.658;4.608;2023-02-01T15:33:59;10.45;;;2.25;;
71296;SDS011;59082;50.658;4.608;2023-02-01T15:36:24;7.63;;;2.33;;
71296;SDS011;59082;50.658;4.608;2023-02-01T15:47:24;12.50;;;2.60;;
71296;SDS011;59082;50.658;4.608;2023-02-01T15:49:54;11.95;;;2.15;;
71296;SDS011;59082;50.658;4.608;2023-02-01T15:54:55;13.90;;;2.78;;
71296;SDS011;59082;50.658;4.608;2023-02-01T15:57:27;9.18;;;3.45;;
71296;SDS011;59082;50.658;4.608;2023-02-01T16:00:00;7.40;;;2.90;;
71296;SDS011;59082;50.658;4.608;2023-02-01T16:02:33;12.90;;;2.67;;
71296;SDS011;59082;50.658;4.608;2023-02-01T16:05:01;10.55;;;2.47;;
71296;SDS011;59082;50.658;4.608;2023-02-01T16:07:33;12.65;;;3.78;;
71296;SDS011;59082;50.658;4.608;2023-02-01T16:10:00;10.10;;;3.25;;
71296;SDS011;59082;50.658;4.608;2023-02-01T16:12:47;11.17;;;3.03;;
71296;SDS011;59082;50.658;4.608;2023-02-01T16:15:14;7.63;;;3.08;;
71296;SDS011;59082;50.658;4.608;2023-02-01T16:17:44;9.40;;;2.97;;
71296;SDS011;59082;50.658;4.608;2023-02-01T16:20:11;10.23;;;2.30;;
71296;SDS011;59082;50.658;4.608;2023-02-01T16:22:38;8.88;;;1.85;;
71296;SDS011;59082;50.658;4.608;2023-02-01T16:25:04;13.57;;;3.87;;
71296;SDS011;59082;50.658;4.608;2023-02-01T16:27:29;11.00;;;2.58;;
71296;SDS011;59082;50.658;4.608;2023-02-01T16:29:57;7.57;;;2.10;;
71296;SDS011;59082;50.658;4.608;2023-02-01T16:32:23;11.10;;;2.78;;
71296;SDS011;59082;50.658;4.608;2023-02-01T16:34:48;10.53;;;2.90;;
71296;SDS011;59082;50.658;4.608;2023-02-01T16:37:15;8.70;;;2.55;;
71296;SDS011;59082;50.658;4.608;2023-02-01T16:39:44;9.37;;;3.87;;
71296;SDS011;59082;50.658;4.608;2023-02-01T16:42:13;11.55;;;2.50;;
71296;SDS011;59082;50.658;4.608;2023-02-01T16:44:40;12.45;;;3.10;;
71296;SDS011;59082;50.658;4.608;2023-02-01T16:47:11;10.10;;;2.60;;
71296;SDS011;59082;50.658;4.608;2023-02-01T16:49:40;5.38;;;2.13;;
71296;SDS011;59082;50.658;4.608;2023-02-01T16:52:08;12.85;;;3.20;;
71296;SDS011;59082;50.658;4.608;2023-02-01T16:54:41;8.63;;;2.25;;
71296;SDS011;59082;50.658;4.608;2023-02-01T16:57:10;9.50;;;3.10;;
71296;SDS011;59082;50.658;4.608;2023-02-01T16:59:37;10.27;;;2.90;;
71296;SDS011;59082;50.658;4.608;2023-02-01T17:02:03;13.27;;;2.83;;
71296;SDS011;59082;50.658;4.608;2023-02-01T17:04:29;6.90;;;2.08;;
71296;SDS011;59082;50.658;4.608;2023-02-01T17:06:54;9.40;;;2.97;;
71296;SDS011;59082;50.658;4.608;2023-02-01T17:09:23;12.15;;;2.80;;
71296;SDS011;59082;50.658;4.608;2023-02-01T17:11:50;10.32;;;2.40;;
71296;SDS011;59082;50.658;4.608;2023-02-01T17:14:16;15.63;;;3.77;;
71296;SDS011;59082;50.658;4.608;2023-02-01T17:16:47;8.70;;;2.63;;
71296;SDS011;59082;50.658;4.608;2023-02-01T17:19:16;9.93;;;2.92;;
71296;SDS011;59082;50.658;4.608;2023-02-01T17:21:48;11.40;;;3.00;;
71296;SDS011;59082;50.658;4.608;2023-02-01T17:24:18;8.65;;;2.72;;
71296;SDS011;59082;50.658;4.608;2023-02-01T17:26:45;10.57;;;3.00;;
71296;SDS011;59082;50.658;4.608;2023-02-01T17:29:11;13.25;;;3.90;;
71296;SDS011;59082;50.658;4.608;2023-02-01T17:31:40;14.60;;;3.03;;
71296;SDS011;59082;50.658;4.608;2023-02-01T17:34:09;7.72;;;2.90;;
71296;SDS011;59082;50.658;4.608;2023-02-01T17:36:36;14.90;;;3.47;;
71296;SDS011;59082;50.658;4.608;2023-02-01T17:39:03;14.27;;;3.30;;
71296;SDS011;59082;50.658;4.608;2023-02-01T17:41:29;16.45;;;3.53;;
71296;SDS011;59082;50.658;4.608;2023-02-01T17:43:55;11.27;;;2.90;;
71296;SDS011;59082;50.658;4.608;2023-02-01T17:46:20;9.60;;;3.17;;
71296;SDS011;59082;50.658;4.608;2023-02-01T17:48:52;9.73;;;2.43;;
71296;SDS011;59082;50.658;4.608;2023-02-01T17:51:19;13.60;;;2.70;;
71296;SDS011;59082;50.658;4.608;2023-02-01T17:53:47;11.32;;;3.72;;
71296;SDS011;59082;50.658;4.608;2023-02-01T17:56:17;15.95;;;3.70;;
71296;SDS011;59082;50.658;4.608;2023-02-01T17:58:44;16.10;;;3.47;;
71296;SDS011;59082;50.658;4.608;2023-02-01T18:01:21;12.00;;;3.30;;
71296;SDS011;59082;50.658;4.608;2023-02-01T18:03:49;12.48;;;3.40;;
71296;SDS011;59082;50.658;4.608;2023-02-01T18:06:16;16.60;;;4.68;;
71296;SDS011;59082;50.658;4.608;2023-02-01T18:08:43;17.20;;;4.18;;
71296;SDS011;59082;50.658;4.608;2023-02-01T18:11:15;12.98;;;3.53;;
71296;SDS011;59082;50.658;4.608;2023-02-01T18:13:43;15.80;;;4.17;;
71296;SDS011;59082;50.658;4.608;2023-02-01T18:16:16;16.98;;;4.28;;
71296;SDS011;59082;50.658;4.608;2023-02-01T18:18:42;12.80;;;4.07;;
71296;SDS011;59082;50.658;4.608;2023-02-01T18:21:08;18.77;;;5.30;;
71296;SDS011;59082;50.658;4.608;2023-02-01T18:23:34;15.77;;;4.50;;
71296;SDS011;59082;50.658;4.608;2023-02-01T18:25:59;18.33;;;3.90;;
71296;SDS011;59082;50.658;4.608;2023-02-01T18:28:25;19.73;;;4.57;;
71296;SDS011;59082;50.658;4.608;2023-02-01T18:30:50;15.90;;;4.67;;
71296;SDS011;59082;50.658;4.608;2023-02-01T18:33:19;19.95;;;4.75;;
71296;SDS011;59082;50.658;4.608;2023-02-01T18:35:45;23.38;;;5.78;;
71296;SDS011;59082;50.658;4.608;2023-02-01T18:38:11;18.80;;;6.28;;
71296;SDS011;59082;50.658;4.608;2023-02-01T18:40:39;13.40;;;4.00;;
71296;SDS011;59082;50.658;4.608;2023-02-01T18:43:22;17.30;;;4.97;;
71296;SDS011;59082;50.658;4.608;2023-02-01T18:45:48;17.97;;;5.50;;
71296;SDS011;59082;50.658;4.608;2023-02-01T18:48:16;14.55;;;4.18;;
71296;SDS011;59082;50.658;4.608;2023-02-01T18:50:45;13.00;;;3.92;;
71296;SDS011;59082;50.658;4.608;2023-02-01T18:53:16;16.45;;;3.80;;
71296;SDS011;59082;50.658;4.608;2023-02-01T18:55:48;11.97;;;4.47;;
71296;SDS011;59082;50.658;4.608;2023-02-01T18:58:14;13.30;;;3.58;;
71296;SDS011;59082;50.658;4.608;2023-02-01T19:00:41;16.42;;;3.85;;
71296;SDS011;59082;50.658;4.608;2023-02-01T19:03:09;10.95;;;3.72;;
71296;SDS011;59082;50.658;4.608;2023-02-01T19:05:39;14.25;;;4.95;;
71296;SDS011;59082;50.658;4.608;2023-02-01T19:08:05;14.33;;;2.97;;
71296;SDS011;59082;50.658;4.608;2023-02-01T19:10:31;14.70;;;3.35;;
71296;SDS011;59082;50.658;4.608;2023-02-01T19:12:58;14.38;;;3.65;;
71296;SDS011;59082;50.658;4.608;2023-02-01T19:15:23;14.50;;;3.80;;
71296;SDS011;59082;50.658;4.608;2023-02-01T19:17:50;15.35;;;3.30;;
71296;SDS011;59082;50.658;4.608;2023-02-01T19:20:19;14.10;;;4.88;;
71296;SDS011;59082;50.658;4.608;2023-02-01T19:22:47;14.25;;;4.28;;
71296;SDS011;59082;50.658;4.608;2023-02-01T19:25:14;13.03;;;4.27;;
71296;SDS011;59082;50.658;4.608;2023-02-01T19:27:56;15.20;;;4.63;;
71296;SDS011;59082;50.658;4.608;2023-02-01T19:30:22;13.68;;;3.97;;
71296;SDS011;59082;50.658;4.608;2023-02-01T19:32:49;18.03;;;4.27;;
71296;SDS011;59082;50.658;4.608;2023-02-01T19:35:16;21.20;;;4.95;;
71296;SDS011;59082;50.658;4.608;2023-02-01T19:37:46;16.17;;;4.28;;
71296;SDS011;59082;50.658;4.608;2023-02-01T19:40:14;16.58;;;4.03;;
71296;SDS011;59082;50.658;4.608;2023-02-01T19:42:43;13.50;;;3.83;;
71296;SDS011;59082;50.658;4.608;2023-02-01T19:45:11;11.63;;;3.73;;
71296;SDS011;59082;50.658;4.608;2023-02-01T19:47:37;13.82;;;3.80;;
71296;SDS011;59082;50.658;4.608;2023-02-01T19:50:05;20.95;;;3.70;;
71296;SDS011;59082;50.658;4.608;2023-02-01T19:52:32;23.37;;;4.73;;
71296;SDS011;59082;50.658;4.608;2023-02-01T19:54:58;19.95;;;4.15;;
71296;SDS011;59082;50.658;4.608;2023-02-01T19:57:25;17.52;;;4.20;;
71296;SDS011;59082;50.658;4.608;2023-02-01T19:59:51;19.08;;;5.07;;
71296;SDS011;59082;50.658;4.608;2023-02-01T20:02:17;13.13;;;3.93;;
71296;SDS011;59082;50.658;4.608;2023-02-01T20:04:42;17.50;;;4.82;;
71296;SDS011;59082;50.658;4.608;2023-02-01T20:07:11;17.63;;;3.83;;
71296;SDS011;59082;50.658;4.608;2023-02-01T20:09:37;11.82;;;3.95;;
71296;SDS011;59082;50.658;4.608;2023-02-01T20:12:06;19.67;;;4.28;;
71296;SDS011;59082;50.658;4.608;2023-02-01T20:14:35;16.17;;;4.33;;
71296;SDS011;59082;50.658;4.608;2023-02-01T20:17:02;15.93;;;4.18;;
71296;SDS011;59082;50.658;4.608;2023-02-01T20:19:27;20.55;;;4.55;;
71296;SDS011;59082;50.658;4.608;2023-02-01T20:21:55;15.05;;;3.50;;
71296;SDS011;59082;50.658;4.608;2023-02-01T20:24:24;20.87;;;4.50;;
71296;SDS011;59082;50.658;4.608;2023-02-01T20:26:53;15.98;;;4.43;;
71296;SDS011;59082;50.658;4.608;2023-02-01T20:29:19;17.90;;;3.50;;
71296;SDS011;59082;50.658;4.608;2023-02-01T20:31:54;17.70;;;4.10;;
71296;SDS011;59082;50.658;4.608;2023-02-01T20:34:19;18.13;;;4.28;;
71296;SDS011;59082;50.658;4.608;2023-02-01T20:36:48;14.23;;;4.18;;
71296;SDS011;59082;50.658;4.608;2023-02-01T20:39:13;20.83;;;3.57;;
71296;SDS011;59082;50.658;4.608;2023-02-01T20:41:39;15.90;;;3.97;;
71296;SDS011;59082;50.658;4.608;2023-02-01T20:44:07;20.02;;;3.65;;
71296;SDS011;59082;50.658;4.608;2023-02-01T20:46:33;17.52;;;4.82;;
71296;SDS011;59082;50.658;4.608;2023-02-01T20:48:59;15.40;;;3.83;;
71296;SDS011;59082;50.658;4.608;2023-02-01T20:51:24;14.75;;;3.72;;
71296;SDS011;59082;50.658;4.608;2023-02-01T20:53:52;13.93;;;3.87;;
71296;SDS011;59082;50.658;4.608;2023-02-01T20:56:20;20.92;;;4.32;;
71296;SDS011;59082;50.658;4.608;2023-02-01T20:58:45;21.35;;;4.05;;
71296;SDS011;59082;50.658;4.608;2023-02-01T21:01:14;22.57;;;4.33;;
71296;SDS011;59082;50.658;4.608;2023-02-01T21:03:40;13.60;;;3.67;;
71296;SDS011;59082;50.658;4.608;2023-02-01T21:06:06;23.80;;;4.28;;
71296;SDS011;59082;50.658;4.608;2023-02-01T21:08:32;17.50;;;4.40;;
71296;SDS011;59082;50.658;4.608;2023-02-01T21:10:59;17.57;;;4.00;;
71296;SDS011;59082;50.658;4.608;2023-02-01T21:13:36;16.92;;;4.38;;
71296;SDS011;59082;50.658;4.608;2023-02-01T21:16:10;18.40;;;4.95;;
71296;SDS011;59082;50.658;4.608;2023-02-01T21:18:37;18.60;;;4.38;;
71296;SDS011;59082;50.658;4.608;2023-02-01T21:21:05;15.63;;;3.80;;
71296;SDS011;59082;50.658;4.608;2023-02-01T21:23:32;21.60;;;4.17;;
71296;SDS011;59082;50.658;4.608;2023-02-01T21:26:08;16.63;;;4.55;;
71296;SDS011;59082;50.658;4.608;2023-02-01T21:28:35;17.02;;;4.85;;
71296;SDS011;59082;50.658;4.608;2023-02-01T21:31:00;16.50;;;4.00;;
71296;SDS011;59082;50.658;4.608;2023-02-01T21:33:26;16.90;;;3.90;;
71296;SDS011;59082;50.658;4.608;2023-02-01T21:35:51;16.48;;;3.83;;
71296;SDS011;59082;50.658;4.608;2023-02-01T21:38:17;20.70;;;3.90;;
71296;SDS011;59082;50.658;4.608;2023-02-01T21:40:42;10.10;;;3.10;;
71296;SDS011;59082;50.658;4.608;2023-02-01T21:43:08;16.02;;;3.90;;
71296;SDS011;59082;50.658;4.608;2023-02-01T21:45:34;20.87;;;4.20;;
71296;SDS011;59082;50.658;4.608;2023-02-01T21:47:59;20.50;;;4.80;;
71296;SDS011;59082;50.658;4.608;2023-02-01T21:50:32;18.10;;;3.83;;
71296;SDS011;59082;50.658;4.608;2023-02-01T21:52:59;13.73;;;3.78;;
71296;SDS011;59082;50.658;4.608;2023-02-01T21:55:24;16.77;;;3.80;;
71296;SDS011;59082;50.658;4.608;2023-02-01T21:57:50;22.23;;;3.88;;
71296;SDS011;59082;50.658;4.608;2023-02-01T22:00:22;14.20;;;4.20;;
71296;SDS011;59082;50.658;4.608;2023-02-01T22:02:48;17.25;;;3.55;;
71296;SDS011;59082;50.658;4.608;2023-02-01T22:05:15;15.60;;;3.10;;
71296;SDS011;59082;50.658;4.608;2023-02-01T22:07:41;18.33;;;4.65;;
71296;SDS011;59082;50.658;4.608;2023-02-01T22:10:08;19.13;;;3.53;;
71296;SDS011;59082;50.658;4.608;2023-02-01T22:12:36;22.73;;;3.72;;
71296;SDS011;59082;50.658;4.608;2023-02-01T22:15:01;12.03;;;3.43;;
71296;SDS011;59082;50.658;4.608;2023-02-01T22:17:27;14.48;;;3.83;;
71296;SDS011;59082;50.658;4.608;2023-02-01T22:19:55;12.85;;;2.60;;